Time;durP1;ratioP1;P1;durP2;ratioP2;P2;SDS_P1;SDS_P2;PMS_P1;PMS_P2;Temp;Humidity;BMP_temperature;BMP_pressure;BME280_temperature;BME280_humidity;BME280_pressure;Samples;Min_cycle;Max_cycle;Signal;HPM_P1;HPM_P2
2023/06/12 00:01:12;;;;;;;3.80;2.80;;;;;;;18.58;100.00;100419.47;5067875;28;20064;-74
2023/06/12 00:03:40;;;;;;;5.45;3.08;;;;;;;18.51;100.00;100420.06;5058187;28;20449;-74
2023/06/12 00:06:06;;;;;;;5.00;2.70;;;;;;;18.49;100.00;100411.16;5086507;28;20068;-74
2023/06/12 00:08:35;;;;;;;3.95;2.40;;;;;;;18.48;100.00;100412.31;5059041;28;20032;-74
2023/06/12 00:11:00;;;;;;;4.80;2.83;;;;;;;18.47;100.00;100402.25;5053749;28;20028;-74
2023/06/12 00:13:26;;;;;;;6.00;2.70;;;;;;;18.41;100.00;100400.81;5040578;28;20028;-74
2023/06/12 00:15:51;;;;;;;4.45;2.70;;;;;;;18.39;100.00;100406.00;5050092;28;20024;-74
2023/06/12 00:18:17;;;;;;;5.32;3.13;;;;;;;18.39;100.00;100400.38;5074199;28;20051;-74
2023/06/12 00:20:43;;;;;;;3.72;2.83;;;;;;;18.41;100.00;100403.63;5081745;28;20035;-74
2023/06/12 00:23:10;;;;;;;5.10;3.25;;;;;;;18.29;100.00;100400.81;5082090;28;20033;-74
2023/06/12 00:25:35;;;;;;;4.05;2.80;;;;;;;18.33;100.00;100412.19;5074044;28;20024;-74
2023/06/12 00:28:01;;;;;;;4.00;3.05;;;;;;;18.30;100.00;100403.28;5084686;28;20122;-74
2023/06/12 00:30:26;;;;;;;4.07;2.67;;;;;;;18.31;100.00;100401.31;5065098;28;20035;-74
2023/06/12 00:32:52;;;;;;;4.72;2.50;;;;;;;18.29;100.00;100400.81;5081266;28;20500;-74
2023/06/12 00:35:18;;;;;;;4.45;2.85;;;;;;;18.27;100.00;100408.78;5062130;28;20040;-74
2023/06/12 00:37:45;;;;;;;7.25;5.10;;;;;;;18.17;100.00;100398.00;5083922;28;20044;-74
2023/06/12 00:40:11;;;;;;;5.13;3.50;;;;;;;18.08;100.00;100400.91;5078905;28;20025;-74
2023/06/12 00:42:45;;;;;;;4.85;3.10;;;;;;;18.08;100.00;100403.72;5081183;28;20032;-74
2023/06/12 00:45:18;;;;;;;4.15;2.90;;;;;;;18.08;100.00;100407.34;5081083;28;20084;-74
2023/06/12 00:47:46;;;;;;;6.15;4.13;;;;;;;17.98;100.00;100409.78;5076480;28;20044;-74
2023/06/12 00:50:12;;;;;;;8.52;6.25;;;;;;;17.88;100.00;100410.19;5099036;28;20032;-74
2023/06/12 00:52:47;;;;;;;6.97;4.07;;;;;;;17.84;100.00;100401.66;5081812;28;20035;-74
2023/06/12 00:55:14;;;;;;;3.75;3.17;;;;;;;17.85;100.00;100412.53;5095283;28;20074;-74
2023/06/12 00:57:41;;;;;;;4.63;3.30;;;;;;;17.82;100.00;100410.41;5099892;28;20027;-74
2023/06/12 01:00:07;;;;;;;7.22;3.70;;;;;;;17.76;100.00;100406.16;5081454;28;20410;-74
2023/06/12 01:02:42;;;;;;;7.78;6.28;;;;;;;17.45;100.00;100412.22;5081833;28;20081;-74
2023/06/12 01:05:13;;;;;;;7.15;5.47;;;;;;;17.42;100.00;100407.28;5070749;28;20069;-74
2023/06/12 01:07:57;;;;;;;4.93;3.63;;;;;;;17.47;100.00;100401.47;5081863;28;20431;-74
2023/06/12 01:10:40;;;;;;;5.88;4.55;;;;;;;17.43;100.00;100394.88;5083257;28;20134;-74
2023/06/12 01:13:06;;;;;;;6.60;4.45;;;;;;;17.48;100.00;100394.69;5082481;28;20088;-74
2023/06/12 01:15:32;;;;;;;4.55;3.90;;;;;;;17.41;100.00;100400.00;5081485;28;20056;-74
2023/06/12 01:17:58;;;;;;;5.53;4.63;;;;;;;17.47;100.00;100395.84;5062497;28;20384;-74
2023/06/12 01:20:24;;;;;;;5.25;3.40;;;;;;;17.46;100.00;100397.00;5100945;28;20153;-74
2023/06/12 01:23:27;;;;;;;5.68;3.80;;;;;;;17.41;100.00;100400.84;5064680;28;20139;-74
2023/06/12 01:26:00;;;;;;;;;;;;;;;17.36;100.00;100403.03;5099654;28;20024;-74
2023/06/12 01:28:26;;;;;;;5.97;4.72;;;;;;;17.39;100.00;100399.56;5071875;28;19908;-74
2023/06/12 01:31:14;;;;;;;8.02;5.53;;;;;;;17.14;100.00;100399.41;5117188;28;20057;-74
2023/06/12 01:33:40;;;;;;;8.55;4.10;;;;;;;17.27;100.00;100393.84;5072840;28;20126;-74
2023/06/12 01:36:08;;;;;;;6.25;4.93;;;;;;;17.16;100.00;100405.50;5112605;28;20028;-74
2023/06/12 01:38:34;;;;;;;7.43;5.22;;;;;;;17.03;100.00;100388.94;5093608;28;20085;-74
2023/06/12 01:40:59;;;;;;;8.73;5.53;;;;;;;17.08;100.00;100386.75;5084349;28;20479;-74
2023/06/12 01:43:25;;;;;;;8.65;5.38;;;;;;;16.96;100.00;100390.25;5088098;28;20076;-74
2023/06/12 01:45:50;;;;;;;6.40;3.97;;;;;;;17.00;100.00;100384.81;5030981;28;20039;-74
2023/06/12 01:48:16;;;;;;;5.72;3.58;;;;;;;17.14;100.00;100390.16;5060597;28;20044;-74
2023/06/12 01:50:42;;;;;;;5.18;3.63;;;;;;;17.19;100.00;100387.97;5079536;28;20078;-74
2023/06/12 01:53:10;;;;;;;5.00;4.00;;;;;;;17.18;100.00;100382.69;5098733;28;20028;-74
2023/06/12 01:55:36;;;;;;;4.72;3.50;;;;;;;17.26;100.00;100383.78;5057418;28;20028;-74
2023/06/12 01:58:02;;;;;;;8.52;5.75;;;;;;;17.28;100.00;100396.31;5091529;28;20035;-74
2023/06/12 02:00:27;;;;;;;8.25;4.25;;;;;;;17.31;100.00;100386.41;5067293;28;20373;-74
2023/06/12 02:02:55;;;;;;;3.97;3.00;;;;;;;17.39;100.00;100396.75;5086968;28;20036;-74
2023/06/12 02:05:20;;;;;;;7.35;5.82;;;;;;;17.31;100.00;100394.81;5066612;28;20028;-74
2023/06/12 02:07:45;;;;;;;5.18;3.35;;;;;;;17.34;100.00;100405.38;5052792;28;20031;-74
2023/06/12 02:10:11;;;;;;;7.10;4.03;;;;;;;17.36;100.00;100391.81;5078789;28;20103;-74
2023/06/12 02:12:36;;;;;;;6.60;4.55;;;;;;;17.40;100.00;100387.16;5076967;28;20031;-74
2023/06/12 02:15:02;;;;;;;4.90;3.15;;;;;;;17.44;100.00;100393.72;5059670;28;20024;-74
2023/06/12 02:17:28;;;;;;;6.38;3.85;;;;;;;17.37;100.00;100394.25;5071288;28;20031;-74
2023/06/12 02:19:53;;;;;;;6.18;3.83;;;;;;;17.43;100.00;100389.25;5098121;28;20039;-74
2023/06/12 02:22:19;;;;;;;6.05;4.97;;;;;;;17.39;100.00;100391.13;5081309;28;20416;-74
2023/06/12 02:24:46;;;;;;;7.97;6.30;;;;;;;17.22;100.00;100378.06;5077710;28;20032;-74
2023/06/12 02:27:12;;;;;;;5.70;4.03;;;;;;;17.17;100.00;100384.69;5077886;28;20030;-74
2023/06/12 02:29:37;;;;;;;7.45;6.15;;;;;;;17.16;100.00;100387.81;5077564;28;20032;-74
2023/06/12 02:32:03;;;;;;;8.23;5.63;;;;;;;17.17;100.00;100390.28;5076562;28;20024;-74
2023/06/12 02:34:28;;;;;;;9.73;5.75;;;;;;;17.11;100.00;100394.47;5091607;28;20040;-74
2023/06/12 02:36:54;;;;;;;7.80;5.68;;;;;;;17.09;100.00;100395.97;5077670;28;20032;-74
2023/06/12 02:39:20;;;;;;;6.10;4.60;;;;;;;17.24;100.00;100400.16;5091120;28;20032;-74
2023/06/12 02:41:46;;;;;;;5.93;4.40;;;;;;;17.28;100.00;100398.31;5077149;28;20028;-74
2023/06/12 02:44:12;;;;;;;9.52;6.50;;;;;;;17.16;100.00;100402.69;5057636;28;20035;-74
2023/06/12 02:46:53;;;;;;;6.93;5.40;;;;;;;17.12;100.00;100403.72;5093969;28;20052;-74
2023/06/12 02:49:19;;;;;;;11.02;5.38;;;;;;;17.07;100.00;100395.47;5079802;28;20027;-74
2023/06/12 02:51:45;;;;;;;8.77;6.50;;;;;;;16.93;100.00;100395.75;5053401;28;20030;-74
2023/06/12 02:54:11;;;;;;;7.03;5.53;;;;;;;16.98;100.00;100390.75;5075372;28;20059;-74
2023/06/12 02:56:37;;;;;;;6.43;4.40;;;;;;;17.02;100.00;100390.06;5079706;28;20070;-74
2023/06/12 02:59:02;;;;;;;10.52;7.07;;;;;;;16.99;100.00;100397.19;5046399;28;20023;-74
2023/06/12 03:01:28;;;;;;;7.10;5.93;;;;;;;17.04;100.00;100404.59;5079544;28;20028;-74
2023/06/12 03:03:56;;;;;;;6.00;5.30;;;;;;;17.11;100.00;100408.50;5082345;28;20024;-74
2023/06/12 03:06:26;;;;;;;8.85;6.20;;;;;;;17.07;100.00;100401.09;5092618;28;20066;-74
2023/06/12 03:08:52;;;;;;;11.00;8.27;;;;;;;16.90;100.00;100400.03;5063183;28;20028;-74
2023/06/12 03:11:17;;;;;;;10.57;6.90;;;;;;;16.92;100.00;100394.09;5076345;28;20501;-74
2023/06/12 03:13:43;;;;;;;7.75;4.85;;;;;;;17.01;100.00;100392.06;5092296;28;20105;-74
2023/06/12 03:16:09;;;;;;;6.07;3.65;;;;;;;17.11;100.00;100380.44;5097322;28;20082;-74
2023/06/12 03:18:35;;;;;;;6.18;4.57;;;;;;;17.19;100.00;100387.97;5102156;28;20031;-74
2023/06/12 03:21:01;;;;;;;7.40;4.40;;;;;;;17.20;100.00;100386.00;5111716;28;20103;-74
2023/06/12 03:23:26;;;;;;;6.90;3.75;;;;;;;17.26;100.00;100381.00;5066818;28;20024;-74
2023/06/12 03:25:52;;;;;;;4.68;3.97;;;;;;;17.29;100.00;100392.34;5110795;28;20407;-74
2023/06/12 03:28:17;;;;;;;5.68;4.20;;;;;;;17.31;100.00;100389.22;5103727;28;20027;-74
2023/06/12 03:30:43;;;;;;;5.40;3.92;;;;;;;17.34;100.00;100388.53;5098343;28;20027;-74
2023/06/12 03:33:09;;;;;;;6.32;5.10;;;;;;;17.37;100.00;100391.47;5062733;28;20115;-74
2023/06/12 03:35:35;;;;;;;4.85;3.83;;;;;;;17.38;100.00;100384.69;5079515;28;20032;-75
2023/06/12 03:38:01;;;;;;;4.03;3.50;;;;;;;17.41;100.00;100388.78;5087515;28;20035;-75
2023/06/12 03:40:26;;;;;;;5.78;3.97;;;;;;;17.40;100.00;100385.16;5102308;28;20039;-75
2023/06/12 03:42:52;;;;;;;5.65;4.55;;;;;;;17.41;100.00;100386.81;5079119;28;20077;-75
2023/06/12 03:45:17;;;;;;;7.38;5.20;;;;;;;17.30;100.00;100385.59;5096834;28;20357;-75
2023/06/12 03:47:42;;;;;;;6.25;4.35;;;;;;;17.27;100.00;100385.44;5097127;28;20052;-75
2023/06/12 03:50:10;;;;;;;6.68;4.93;;;;;;;17.16;100.00;100396.22;5059292;28;20024;-75
2023/06/12 03:52:35;;;;;;;6.53;4.07;;;;;;;17.12;100.00;100392.47;5082466;28;20049;-75
2023/06/12 03:55:01;;;;;;;4.43;3.33;;;;;;;17.13;100.00;100400.56;5084865;28;20427;-75
2023/06/12 03:57:26;;;;;;;6.90;5.15;;;;;;;17.08;100.00;100386.75;5112568;28;20101;-75
2023/06/12 03:59:52;;;;;;;4.88;4.07;;;;;;;17.04;100.00;100391.38;5082416;28;20039;-75
2023/06/12 04:02:17;;;;;;;4.72;3.60;;;;;;;17.06;100.00;100389.06;5100921;28;20381;-75
2023/06/12 04:04:42;;;;;;;7.32;5.07;;;;;;;17.06;100.00;100385.44;5086308;28;20039;-75
2023/06/12 04:07:08;;;;;;;4.18;3.38;;;;;;;17.08;100.00;100392.34;5114506;28;20032;-75
2023/06/12 04:09:33;;;;;;;4.50;3.35;;;;;;;17.08;100.00;100395.16;5100839;28;20043;-75
2023/06/12 04:12:00;;;;;;;4.05;3.30;;;;;;;17.09;100.00;100388.38;5116100;28;20107;-75
2023/06/12 04:14:25;;;;;;;7.15;3.65;;;;;;;17.07;100.00;100384.25;5107461;28;20032;-75
2023/06/12 04:16:51;;;;;;;6.10;3.53;;;;;;;17.04;100.00;100391.38;5106761;28;20024;-75
2023/06/12 04:19:17;;;;;;;4.72;3.47;;;;;;;17.01;100.00;100385.63;5121180;28;20028;-75
2023/06/12 04:21:42;;;;;;;6.30;4.28;;;;;;;17.02;100.00;100387.25;5097221;28;20032;-75
2023/06/12 04:24:15;;;;;;;5.25;4.00;;;;;;;17.02;100.00;100395.69;5102808;28;20046;-75
2023/06/12 04:26:46;;;;;;;6.80;3.75;;;;;;;17.01;100.00;100389.25;5112441;28;20038;-75
2023/06/12 04:29:12;;;;;;;5.97;4.22;;;;;;;17.05;100.00;100390.22;5096912;28;20384;-75
2023/06/12 04:31:37;;;;;;;5.20;3.15;;;;;;;17.05;100.00;100404.25;5120648;28;20028;-75
2023/06/12 04:34:03;;;;;;;6.70;3.90;;;;;;;17.05;100.00;100403.41;5102405;28;20035;-75
2023/06/12 04:36:28;;;;;;;5.40;3.42;;;;;;;17.05;100.00;100400.59;5120678;28;20036;-75
2023/06/12 04:38:56;;;;;;;6.82;4.82;;;;;;;16.99;100.00;100408.41;5099255;28;20023;-75
2023/06/12 04:41:27;;;;;;;4.65;3.88;;;;;;;16.98;100.00;100410.38;5102294;28;20051;-75
2023/06/12 04:43:58;;;;;;;5.47;3.58;;;;;;;17.02;100.00;100406.91;5120056;28;20030;-75
2023/06/12 04:46:24;;;;;;;8.02;4.05;;;;;;;17.02;100.00;100416.16;5120182;28;20035;-75
2023/06/12 04:48:50;;;;;;;9.05;5.35;;;;;;;16.93;100.00;100413.38;5085356;28;20065;-75
2023/06/12 04:51:15;;;;;;;6.78;4.80;;;;;;;16.81;100.00;100418.09;5120322;28;20417;-75
2023/06/12 04:53:43;;;;;;;6.75;4.57;;;;;;;16.86;100.00;100417.91;5120317;28;20024;-75
2023/06/12 04:56:09;;;;;;;7.38;5.10;;;;;;;16.86;100.00;100407.50;5120272;28;20034;-75
2023/06/12 04:58:38;;;;;;;9.60;5.65;;;;;;;16.72;100.00;100407.72;5119789;28;20031;-75
2023/06/12 05:01:04;;;;;;;5.93;4.00;;;;;;;16.81;100.00;100412.50;5119976;28;20023;-74
2023/06/12 05:03:33;;;;;;;7.13;4.57;;;;;;;16.79;100.00;100409.19;5106824;28;20043;-75
2023/06/12 05:05:58;;;;;;;6.68;3.92;;;;;;;16.75;100.00;100414.63;5108843;28;20034;-74
2023/06/12 05:08:24;;;;;;;5.65;3.75;;;;;;;16.73;100.00;100409.34;5085369;28;20039;-75
2023/06/12 05:10:49;;;;;;;5.85;3.50;;;;;;;16.82;100.00;100416.94;5105304;28;20035;-75
2023/06/12 05:13:15;;;;;;;6.85;5.32;;;;;;;16.71;100.00;100413.66;5116513;28;20058;-75
2023/06/12 05:15:41;;;;;;;4.00;3.22;;;;;;;16.81;100.00;100409.69;5099414;28;20040;-75
2023/06/12 05:18:07;;;;;;;4.07;3.33;;;;;;;16.83;100.00;100411.00;5100146;28;20103;-75
2023/06/12 05:20:32;;;;;;;4.53;3.50;;;;;;;16.79;100.00;100412.81;5117806;28;20035;-75
2023/06/12 05:22:58;;;;;;;4.45;3.13;;;;;;;16.79;100.00;100398.78;5099339;28;20032;-75
2023/06/12 05:25:23;;;;;;;4.00;2.80;;;;;;;16.77;100.00;100403.94;5099223;28;20043;-74
2023/06/12 05:27:49;;;;;;;4.78;3.55;;;;;;;16.77;100.00;100408.69;5101602;28;20951;-75
2023/06/12 05:30:15;;;;;;;4.70;3.22;;;;;;;16.77;100.00;100403.09;5119643;28;20027;-75
2023/06/12 05:32:40;;;;;;;3.90;2.80;;;;;;;16.74;100.00;100405.41;5102483;28;20032;-75
2023/06/12 05:35:07;;;;;;;3.03;2.30;;;;;;;16.81;100.00;100415.28;5099649;28;20062;-75
2023/06/12 05:37:33;;;;;;;2.55;1.95;;;;;;;16.85;100.00;100411.44;5102291;28;20085;-75
2023/06/12 05:39:58;;;;;;;2.38;1.90;;;;;;;16.88;100.00;100418.38;5109092;28;20024;-75
2023/06/12 05:42:24;;;;;;;2.55;1.80;;;;;;;16.84;100.00;100420.22;5094463;28;20031;-75
2023/06/12 05:44:50;;;;;;;2.15;1.77;;;;;;;16.83;100.00;100415.78;5098489;28;20111;-75
2023/06/12 05:47:15;;;;;;;2.42;1.63;;;;;;;16.84;100.00;100411.81;5098832;28;20052;-75
2023/06/12 05:49:41;;;;;;;2.65;2.30;;;;;;;16.83;100.00;100415.78;5098808;28;20024;-75
2023/06/12 05:52:07;;;;;;;4.82;2.28;;;;;;;16.78;100.00;100418.78;5111867;28;20491;-75
2023/06/12 05:54:32;;;;;;;3.20;2.33;;;;;;;16.70;100.00;100426.84;5108537;28;20074;-75
2023/06/12 05:56:58;;;;;;;2.88;2.00;;;;;;;16.74;100.00;100430.66;5098643;28;20287;-75
2023/06/12 05:59:23;;;;;;;4.18;2.25;;;;;;;16.81;100.00;100427.34;5073874;28;20476;-75
2023/06/12 06:01:49;;;;;;;2.58;1.95;;;;;;;16.80;100.00;100427.66;5101520;28;20043;-75
2023/06/12 06:04:16;;;;;;;2.15;1.77;;;;;;;16.87;100.00;100437.19;5083562;28;20043;-75
2023/06/12 06:06:41;;;;;;;3.78;2.58;;;;;;;16.85;100.00;100438.69;5060165;28;20020;-75
2023/06/12 06:09:07;;;;;;;3.65;2.70;;;;;;;16.87;100.00;100436.38;5098605;28;20078;-75
2023/06/12 06:11:32;;;;;;;2.72;2.20;;;;;;;16.98;100.00;100437.63;5110172;28;20035;-75
2023/06/12 06:13:58;;;;;;;3.28;1.98;;;;;;;17.02;100.00;100433.00;5090751;28;20027;-75
2023/06/12 06:16:24;;;;;;;2.90;1.67;;;;;;;17.09;100.00;100433.25;5079584;28;20024;-75
2023/06/12 06:18:50;;;;;;;3.42;2.53;;;;;;;17.14;100.00;100441.50;5104715;28;20102;-75
2023/06/12 06:21:15;;;;;;;3.10;2.47;;;;;;;17.27;100.00;100445.19;5110464;28;20117;-75
2023/06/12 06:23:41;;;;;;;4.13;2.40;;;;;;;17.29;100.00;100434.44;5098272;28;20031;-75
2023/06/12 06:26:06;;;;;;;5.15;2.95;;;;;;;17.32;100.00;100442.19;5098094;28;20036;-75
2023/06/12 06:28:32;;;;;;;3.33;2.53;;;;;;;17.40;100.00;100437.69;5110123;28;20032;-75
2023/06/12 06:30:59;;;;;;;3.38;2.13;;;;;;;17.50;100.00;100440.09;5082525;28;20511;-75
2023/06/12 06:33:25;;;;;;;4.03;2.22;;;;;;;17.56;100.00;100440.69;5108490;28;20503;-75
2023/06/12 06:35:51;;;;;;;4.18;1.83;;;;;;;17.61;100.00;100441.31;5080147;28;20059;-75
2023/06/12 06:38:20;;;;;;;4.00;2.65;;;;;;;17.65;100.00;100438.63;5108046;28;20027;-75
2023/06/12 06:40:46;;;;;;;3.08;2.22;;;;;;;17.73;100.00;100434.09;5082654;28;20024;-75
2023/06/12 06:43:12;;;;;;;3.72;2.35;;;;;;;17.80;100.00;100445.63;5079609;28;20036;-75
2023/06/12 06:45:38;;;;;;;2.63;2.03;;;;;;;17.88;100.00;100439.09;5097599;28;20032;-75
2023/06/12 06:48:04;;;;;;;4.38;2.60;;;;;;;17.95;100.00;100435.75;5097718;28;20102;-75
2023/06/12 06:50:29;;;;;;;3.97;3.00;;;;;;;17.93;100.00;100433.28;5102363;28;20114;-75
2023/06/12 06:52:55;;;;;;;4.85;3.53;;;;;;;17.95;100.00;100439.38;5117998;28;20115;-75
2023/06/12 06:55:20;;;;;;;3.75;3.00;;;;;;;17.92;100.00;100434.44;5100108;28;20027;-75
2023/06/12 06:57:46;;;;;;;5.35;3.42;;;;;;;17.93;100.00;100438.91;5070435;28;20106;-75
2023/06/12 07:00:12;;;;;;;4.25;2.78;;;;;;;17.98;100.00;100433.06;5111183;28;20070;-75
2023/06/12 07:02:40;;;;;;;6.07;2.70;;;;;;;18.04;100.00;100433.66;5098018;28;20032;-75
2023/06/12 07:05:06;;;;;;;3.75;2.05;;;;;;;18.13;100.00;100436.38;5085976;28;20100;-75
2023/06/12 07:07:31;;;;;;;3.67;2.60;;;;;;;18.15;100.00;100434.88;5108642;28;20536;-75
2023/06/12 07:09:57;;;;;;;4.30;2.50;;;;;;;18.18;100.00;100436.16;5097641;28;20032;-75
2023/06/12 07:12:22;;;;;;;3.20;2.45;;;;;;;18.27;100.00;100428.44;5116348;28;20426;-75
2023/06/12 07:14:48;;;;;;;6.60;3.15;;;;;;;18.36;100.00;100433.97;5100992;28;20024;-75
2023/06/12 07:17:13;;;;;;;4.75;3.10;;;;;;;18.44;100.00;100428.28;5097581;28;20531;-75
2023/06/12 07:19:39;;;;;;;4.38;3.60;;;;;;;18.57;100.00;100433.91;5111068;28;20070;-75
2023/06/12 07:22:04;;;;;;;5.97;4.43;;;;;;;18.70;100.00;100429.94;5102913;28;20048;-75
2023/06/12 07:24:30;;;;;;;6.05;4.13;;;;;;;18.84;100.00;100433.25;5097380;28;20043;-75
2023/06/12 07:26:55;;;;;;;4.47;3.28;;;;;;;18.98;100.00;100433.69;5097311;28;20028;-75
2023/06/12 07:29:23;;;;;;;5.20;3.03;;;;;;;19.17;100.00;100430.28;5115342;28;20036;-75
2023/06/12 07:31:48;;;;;;;2.83;2.15;;;;;;;19.38;100.00;100434.94;5112240;28;20036;-74
2023/06/12 07:34:14;;;;;;;5.68;2.90;;;;;;;19.59;100.00;100426.31;5101765;28;20043;-74
2023/06/12 07:36:39;;;;;;;2.92;2.22;;;;;;;19.82;100.00;100430.25;5101468;28;20051;-73
2023/06/12 07:39:05;;;;;;;2.90;2.42;;;;;;;20.01;100.00;100417.47;5114817;28;20054;-74
2023/06/12 07:41:30;;;;;;;5.07;2.10;;;;;;;20.16;100.00;100424.31;5083179;28;20035;-74
2023/06/12 07:43:55;;;;;;;3.28;2.45;;;;;;;20.31;100.00;100424.34;5106951;28;20035;-74
2023/06/12 07:46:21;;;;;;;3.45;2.47;;;;;;;20.41;100.00;100411.69;5079039;28;20483;-74
2023/06/12 07:48:47;;;;;;;6.63;2.30;;;;;;;20.49;100.00;100418.34;5107829;28;20034;-73
2023/06/12 07:51:12;;;;;;;3.60;2.30;;;;;;;20.63;100.00;100421.56;5117084;28;20031;-74
2023/06/12 07:53:37;;;;;;;3.50;1.73;;;;;;;20.86;100.00;100418.91;5118328;28;20434;-73
2023/06/12 07:56:03;;;;;;;3.38;2.47;;;;;;;21.01;100.00;100414.44;5083085;28;20032;-73
2023/06/12 07:58:30;;;;;;;4.82;2.15;;;;;;;21.22;100.00;100416.09;5100712;28;20039;-74
2023/06/12 08:00:56;;;;;;;4.88;1.85;;;;;;;21.39;100.00;100410.06;5082579;28;20020;-74
2023/06/12 08:03:26;;;;;;;5.18;2.03;;;;;;;21.57;100.00;100413.28;5115985;28;20039;-74
2023/06/12 08:05:52;;;;;;;5.15;1.90;;;;;;;21.70;100.00;100405.47;5092136;28;20020;-74
2023/06/12 08:08:18;;;;;;;6.45;2.40;;;;;;;21.87;100.00;100410.69;5087287;28;20062;-74
2023/06/12 08:10:43;;;;;;;3.00;2.08;;;;;;;22.07;100.00;100415.13;5087450;28;20023;-74
2023/06/12 08:13:09;;;;;;;4.20;2.20;;;;;;;22.24;100.00;100411.03;5100524;28;20031;-74
2023/06/12 08:15:34;;;;;;;3.00;2.00;;;;;;;22.51;100.00;100419.56;5071163;28;20483;-74
2023/06/12 08:18:00;;;;;;;4.47;2.10;;;;;;;22.71;100.00;100409.00;5096021;28;20032;-74
2023/06/12 08:20:25;;;;;;;5.55;2.60;;;;;;;22.89;100.00;100415.75;5119803;28;20035;-74
2023/06/12 08:22:55;;;;;;;4.47;2.60;;;;;;;23.13;100.00;100414.56;5100504;28;20088;-74
2023/06/12 08:25:21;;;;;;;5.22;2.20;;;;;;;23.31;100.00;100411.97;5065834;28;20035;-74
2023/06/12 08:27:46;;;;;;;6.57;2.50;;;;;;;23.46;100.00;100415.84;5102387;28;20051;-74
2023/06/12 08:30:12;;;;;;;4.72;2.50;;;;;;;23.68;100.00;100411.25;5120734;28;20023;-74
2023/06/12 08:32:38;;;;;;;9.90;2.67;;;;;;;23.92;100.00;100412.78;5104277;28;20051;-74
2023/06/12 08:35:04;;;;;;;3.58;2.60;;;;;;;24.15;100.00;100401.28;5100292;28;20035;-74
2023/06/12 08:37:30;;;;;;;3.15;2.10;;;;;;;24.40;100.00;100397.88;5082419;28;20036;-74
2023/06/12 08:39:55;;;;;;;6.43;2.65;;;;;;;24.61;100.00;100400.94;5099135;28;20396;-74
2023/06/12 08:42:21;;;;;;;5.00;3.28;;;;;;;24.80;100.00;100388.53;5100060;28;20028;-74
2023/06/12 08:44:47;;;;;;;7.35;2.97;;;;;;;24.99;100.00;100381.78;5099855;28;20380;-74
2023/06/12 08:47:15;;;;;;;6.10;3.28;;;;;;;25.16;100.00;100383.94;5100070;28;20078;-74
2023/06/12 08:49:41;;;;;;;6.55;3.47;;;;;;;25.34;100.00;100381.19;5110170;28;20035;-74
2023/06/12 08:52:10;;;;;;;6.78;4.13;;;;;;;25.48;100.00;100388.97;5082212;28;20023;-74
2023/06/12 08:54:42;;;;;;;5.32;3.30;;;;;;;25.67;100.00;100385.00;5109137;28;20035;-74
2023/06/12 08:57:10;;;;;;;6.97;3.05;;;;;;;25.81;100.00;100389.91;5065281;28;20028;-74
2023/06/12 08:59:36;;;;;;;7.60;3.28;;;;;;;25.94;100.00;100379.03;5099807;28;20034;-74
2023/06/12 09:02:01;;;;;;;7.05;4.40;;;;;;;26.02;100.00;100386.34;5101948;28;20031;-74
2023/06/12 09:04:33;;;;;;;8.45;4.50;;;;;;;26.13;100.00;100380.69;5069302;28;20024;-74
2023/06/12 09:07:01;;;;;;;7.97;4.03;;;;;;;26.18;99.26;100380.28;5113073;28;20562;-74
2023/06/12 09:09:40;;;;;;;7.15;4.22;;;;;;;26.22;98.51;100376.22;5111633;28;20032;-74
2023/06/12 09:12:12;;;;;;;7.03;3.70;;;;;;;26.20;98.08;100375.81;5116183;28;20040;-74
2023/06/12 09:14:39;;;;;;;6.85;4.57;;;;;;;26.19;98.90;100373.41;5104902;28;20361;-74
2023/06/12 09:17:06;;;;;;;6.50;3.90;;;;;;;26.28;97.16;100371.75;5099478;28;20027;-74
2023/06/12 09:19:35;;;;;;;6.57;4.05;;;;;;;26.30;96.61;100380.72;5070943;28;20088;-74
2023/06/12 09:22:02;;;;;;;8.40;4.40;;;;;;;26.32;96.02;100379.50;5105279;28;20028;-74
2023/06/12 09:24:28;;;;;;;9.55;5.15;;;;;;;26.36;95.17;100389.69;5081284;28;20040;-74
2023/06/12 09:26:55;;;;;;;9.35;5.63;;;;;;;26.30;94.31;100383.56;5099267;28;20043;-74
2023/06/12 09:29:35;;;;;;;7.88;4.70;;;;;;;26.28;94.03;100382.34;5114503;28;20456;-74
2023/06/12 09:32:04;;;;;;;8.15;4.70;;;;;;;26.27;93.47;100386.38;5108164;28;20113;-74
2023/06/12 09:34:33;;;;;;;8.57;4.43;;;;;;;26.25;93.50;100383.97;5099443;28;20043;-74
2023/06/12 09:36:59;;;;;;;7.93;4.50;;;;;;;26.17;94.64;100392.91;5099101;28;20569;-74
2023/06/12 09:39:28;;;;;;;9.35;4.70;;;;;;;26.14;94.90;100390.88;5112764;28;20031;-74
2023/06/12 09:41:54;;;;;;;9.50;5.28;;;;;;;26.04;95.79;100389.59;5099039;28;20031;-74
2023/06/12 09:44:26;;;;;;;8.75;5.15;;;;;;;25.98;96.42;100392.03;5098623;28;20032;-74
2023/06/12 09:46:51;;;;;;;6.78;4.55;;;;;;;25.99;96.42;100381.47;5098855;28;20048;-75
2023/06/12 09:49:19;;;;;;;9.90;4.57;;;;;;;26.04;94.72;100381.88;5099000;28;20032;-74
2023/06/12 09:51:49;;;;;;;10.18;4.47;;;;;;;26.14;94.18;100376.63;5108713;28;20028;-74
2023/06/12 09:54:19;;;;;;;6.82;4.13;;;;;;;26.19;95.89;100373.41;5111421;28;20502;-74
2023/06/12 09:56:45;;;;;;;8.25;4.45;;;;;;;26.26;97.32;100379.06;5082579;28;20024;-74
2023/06/12 09:59:16;;;;;;;6.72;3.97;;;;;;;26.40;96.72;100384.78;5091688;28;20048;-75
2023/06/12 10:01:45;;;;;;;7.57;4.38;;;;;;;26.50;93.76;100383.19;5080855;28;20028;-74
2023/06/12 10:04:10;;;;;;;6.32;3.83;;;;;;;26.74;93.48;100378.72;5101306;28;20036;-75
2023/06/12 10:06:37;;;;;;;8.23;3.83;;;;;;;26.83;93.75;100372.59;5067184;28;20027;-75
2023/06/12 10:09:03;;;;;;;5.93;3.63;;;;;;;27.00;91.96;100383.19;5108092;28;20032;-75
2023/06/12 10:11:28;;;;;;;7.00;3.97;;;;;;;27.12;89.21;100379.88;5094511;28;20027;-75
2023/06/12 10:13:54;;;;;;;8.68;5.07;;;;;;;27.15;89.21;100379.06;5117542;28;20438;-75
2023/06/12 10:16:20;;;;;;;8.88;3.72;;;;;;;27.41;88.59;100368.41;5083578;28;20080;-75
2023/06/12 10:18:45;;;;;;;5.55;3.78;;;;;;;27.54;85.41;100369.59;5080095;28;20095;-75
2023/06/12 10:21:10;;;;;;;7.15;4.00;;;;;;;27.60;83.50;100372.84;5111975;28;20399;-75
2023/06/12 10:23:36;;;;;;;5.32;3.63;;;;;;;27.77;82.97;100368.28;5114418;28;20081;-75
2023/06/12 10:26:02;;;;;;;6.43;3.30;;;;;;;27.93;82.86;100364.97;5083559;27;20032;-75
2023/06/12 10:28:27;;;;;;;5.28;3.55;;;;;;;28.05;81.54;100361.63;5076766;28;20073;-75
2023/06/12 10:31:16;;;;;;;6.55;3.75;;;;;;;28.14;80.02;100367.69;5098226;28;20024;-77
2023/06/12 10:34:00;;;;;;;6.15;3.53;;;;;;;28.18;77.35;100368.47;5098291;28;20496;-77
2023/06/12 10:36:39;;;;;;;6.13;3.10;;;;;;;28.27;74.43;100371.66;5106081;28;20039;-77
2023/06/12 10:39:06;;;;;;;5.25;3.55;;;;;;;28.28;73.20;100373.31;5098652;28;20055;-77
2023/06/12 10:41:32;;;;;;;7.60;3.95;;;;;;;28.37;75.16;100369.97;5070100;28;20040;-77
2023/06/12 10:43:57;;;;;;;4.97;3.13;;;;;;;28.49;74.28;100366.63;5097623;28;20479;-77
2023/06/12 10:46:23;;;;;;;6.50;3.50;;;;;;;28.46;73.69;100367.47;5079486;28;20032;-78
2023/06/12 10:48:48;;;;;;;4.10;3.05;;;;;;;28.51;71.11;100360.50;5097884;28;20098;-77
2023/06/12 10:51:14;;;;;;;5.30;3.42;;;;;;;28.69;70.67;100366.88;5103547;28;20108;-77
2023/06/12 10:53:44;;;;;;;3.60;3.03;;;;;;;28.69;71.19;100371.78;5114420;28;20043;-77
2023/06/12 10:56:09;;;;;;;4.00;3.60;;;;;;;28.62;68.84;100366.94;5079949;28;20024;-77
2023/06/12 10:58:39;;;;;;;4.78;3.45;;;;;;;28.80;69.77;100369.63;5081468;28;20533;-77
2023/06/12 11:01:09;;;;;;;3.70;2.90;;;;;;;28.79;68.18;100358.63;5109431;28;20061;-77
2023/06/12 11:03:42;;;;;;;4.00;2.97;;;;;;;28.96;68.82;100364.16;5102544;28;20099;-78
2023/06/12 11:06:15;;;;;;;3.97;2.88;;;;;;;29.01;68.72;100371.47;5074588;28;20046;-78
2023/06/12 11:08:41;;;;;;;5.10;2.78;;;;;;;29.04;68.41;100367.78;5085065;28;20062;-78
2023/06/12 11:11:10;;;;;;;5.57;2.80;;;;;;;29.18;68.03;100359.06;5095958;28;20110;-77
2023/06/12 11:13:42;;;;;;;4.25;2.70;;;;;;;29.32;68.39;100358.09;5111481;28;20054;-77
2023/06/12 11:16:12;;;;;;;2.80;2.50;;;;;;;29.39;68.48;100351.47;5097407;28;20046;-77
2023/06/12 11:18:37;;;;;;;5.53;3.05;;;;;;;29.48;68.18;100348.91;5085404;28;20027;-78